Terminal Aerodrome Forecast
Issued by NWS

Home | Current Version | Previous Version | Text Only | Print | Product List | Glossary Off
Versions: 1 2 3 4 5 6 7 8 9 10 11 12 13 14 15 16 17 18

000
FTUS43 KMPX 150231 AAA
TAFAXN
TAF AMD
KAXN 150231Z 1503/1524 36013KT P6SM -RA OVC050
     FM150500 35014KT 6SM -RA BR BKN025 OVC050
     FM150900 33014KT P6SM SCT025 OVC035
     FM151300 31008KT P6SM SCT040
     FM151800 27011KT P6SM BKN100=

USA.gov is the U.S. government's official web portal to all federal, state and local government web resources and services.